Riviera, Texas
Current Conditions -  °F | °C
As of 5:56 AM on Friday 24 Oct 2014 (Local Time) from KNQI Reporting Station
Clear Clear  
Wind Chill: 61°   Ceiling: Unl
Heat Index: 61°   Visibility: 7mi
Dew Point: 61°   Wind: 5mph
Humidity: 100%   Direction: 320°NW
Pressure: 30.1"   Gusts: NA
Location:  27.3°N, 97.82°W
Report Text: KNQI 241056Z AUTO 32004KT 7SM CLR 16/16 A3010 RMK AO2 SLP188 T01610161
Loading
Personal Weather Stations






























Interactive Weather Map
Tropical Storm Tracking
New forecast layout! Learn more

10-Day Weather Forecast

Advertisements
Track Severe Weather on mobile